Time;durP1;ratioP1;P1;durP2;ratioP2;P2;SDS_P1;SDS_P2;PMS_P1;PMS_P2;Temp;Humidity;BMP_temperature;BMP_pressure;BME280_temperature;BME280_humidity;BME280_pressure;Samples;Min_cycle;Max_cycle;Signal;HPM_P1;HPM_P2
2023/06/16 00:00:11;;;;;;;0.57;0.50;;;;;;;;;;5016018;28;20093;-85
2023/06/16 00:02:41;;;;;;;0.28;0.25;;;;;;;;;;5033502;28;20029;-87
2023/06/16 00:05:12;;;;;;;0.47;0.47;;;;;;;;;;5015951;28;20061;-86
2023/06/16 00:07:38;;;;;;;0.52;0.50;;;;;;;;;;5032197;28;20483;-88
2023/06/16 00:10:06;;;;;;;0.80;0.60;;;;;;;;;;5014380;28;20164;-87
2023/06/16 00:12:32;;;;;;;0.40;0.40;;;;;;;;;;5037621;28;20427;-86
2023/06/16 00:14:57;;;;;;;0.57;0.43;;;;;;;;;;5015401;28;20060;-86
2023/06/16 00:17:26;;;;;;;1.02;0.73;;;;;;;;;;5027739;28;20049;-87
2023/06/16 00:19:57;;;;;;;0.77;0.50;;;;;;;;;;5015849;28;20122;-87
2023/06/16 00:22:25;;;;;;;0.52;0.30;;;;;;;;;;5012706;28;20112;-88
2023/06/16 00:24:52;;;;;;;0.68;0.60;;;;;;;;;;5034766;28;20025;-88
2023/06/16 00:27:18;;;;;;;1.02;0.73;;;;;;;;;;5034775;28;20552;-88
2023/06/16 00:29:43;;;;;;;0.60;0.52;;;;;;;;;;5019474;28;20390;-87
2023/06/16 00:32:09;;;;;;;0.50;0.50;;;;;;;;;;5020150;28;20080;-89
2023/06/16 00:34:34;;;;;;;0.85;0.65;;;;;;;;;;5020022;28;20041;-89
2023/06/16 00:37:00;;;;;;;0.68;0.50;;;;;;;;;;5020855;28;20052;-88
2023/06/16 00:39:26;;;;;;;0.70;0.70;;;;;;;;;;5021474;28;20469;-87
2023/06/16 00:41:52;;;;;;;0.20;0.20;;;;;;;;;;5017995;28;20116;-86
2023/06/16 00:44:17;;;;;;;0.52;0.52;;;;;;;;;;5016437;28;20481;-87
2023/06/16 00:46:43;;;;;;;0.50;0.50;;;;;;;;;;5019370;28;20053;-89
2023/06/16 00:49:09;;;;;;;0.80;0.50;;;;;;;;;;5017944;28;20041;-87
2023/06/16 00:51:35;;;;;;;0.70;0.50;;;;;;;;;;5035771;28;20026;-91
2023/06/16 00:54:02;;;;;;;0.30;0.30;;;;;;;;;;5017604;28;20029;-90
2023/06/16 00:56:28;;;;;;;0.80;0.55;;;;;;;;;;5016535;28;20466;-90
2023/06/16 00:58:54;;;;;;;0.70;0.40;;;;;;;;;;5016336;28;20477;-88
2023/06/16 01:01:20;;;;;;;0.30;0.30;;;;;;;;;;5017365;28;20025;-88
2023/06/16 01:03:50;;;;;;;0.80;0.70;;;;;;;;;;5037788;28;20040;-88
2023/06/16 01:06:31;;;;;;;1.80;0.88;;;;;;;;;;5034785;28;20047;-89
2023/06/16 01:09:15;;;;;;;0.40;0.40;;;;;;;;;;5036800;28;20025;-86
2023/06/16 01:12:03;;;;;;;1.65;0.77;;;;;;;;;;5035884;28;20029;-86
2023/06/16 01:15:04;;;;;;;0.45;0.30;;;;;;;;;;5016205;28;20025;-88
2023/06/16 01:17:35;;;;;;;0.85;0.63;;;;;;;;;;5026741;28;20034;-87
2023/06/16 01:20:08;;;;;;;1.13;0.57;;;;;;;;;;5033889;28;20041;-88
2023/06/16 01:22:51;;;;;;;0.38;0.38;;;;;;;;;;5019601;28;20125;-87
2023/06/16 01:25:22;;;;;;;0.77;0.70;;;;;;;;;;5035860;28;20053;-88
2023/06/16 01:27:51;;;;;;;0.60;0.52;;;;;;;;;;5017855;28;20108;-86
2023/06/16 01:30:19;;;;;;;1.20;1.10;;;;;;;;;;5017660;28;20025;-87
2023/06/16 01:32:47;;;;;;;1.00;0.70;;;;;;;;;;5018491;28;20432;-87
2023/06/16 01:35:13;;;;;;;0.90;0.65;;;;;;;;;;5035016;28;20060;-91
2023/06/16 01:37:40;;;;;;;0.40;0.40;;;;;;;;;;5015800;28;20025;-88
2023/06/16 01:40:07;;;;;;;0.85;0.60;;;;;;;;;;5034976;28;20333;-90
2023/06/16 01:42:34;;;;;;;1.00;0.70;;;;;;;;;;5017615;28;20124;-87
2023/06/16 01:45:01;;;;;;;0.98;0.57;;;;;;;;;;5016288;28;20088;-87
2023/06/16 01:47:27;;;;;;;0.77;0.52;;;;;;;;;;5033560;28;20061;-89
2023/06/16 01:49:53;;;;;;;0.77;0.45;;;;;;;;;;5032387;28;20068;-85
2023/06/16 01:52:20;;;;;;;0.63;0.60;;;;;;;;;;5034766;28;20477;-87
2023/06/16 01:54:46;;;;;;;1.80;0.82;;;;;;;;;;5015148;28;20117;-88
2023/06/16 01:57:11;;;;;;;1.08;0.73;;;;;;;;;;5034889;28;20045;-85
2023/06/16 01:59:37;;;;;;;1.05;0.95;;;;;;;;;;5017610;28;20029;-88
2023/06/16 02:02:14;;;;;;;0.85;0.70;;;;;;;;;;5015602;28;20079;-83
2023/06/16 02:04:44;;;;;;;1.00;0.60;;;;;;;;;;5015526;28;20120;-86
2023/06/16 02:07:13;;;;;;;0.60;0.40;;;;;;;;;;5034130;28;20029;-85
2023/06/16 02:09:41;;;;;;;1.02;0.88;;;;;;;;;;5017887;28;20160;-85
2023/06/16 02:12:11;;;;;;;2.15;1.00;;;;;;;;;;5035798;28;20021;-85
2023/06/16 02:14:37;;;;;;;1.15;0.85;;;;;;;;;;5037456;28;20032;-91
2023/06/16 02:17:08;;;;;;;1.55;0.80;;;;;;;;;;5036804;28;20520;-85
2023/06/16 02:19:34;;;;;;;0.82;0.70;;;;;;;;;;5019957;28;20025;-89
2023/06/16 02:22:00;;;;;;;1.00;0.75;;;;;;;;;;5034042;28;20040;-87
2023/06/16 02:24:26;;;;;;;1.75;0.95;;;;;;;;;;5016176;28;20029;-89
2023/06/16 02:26:52;;;;;;;1.85;0.40;;;;;;;;;;5015494;28;20033;-88
2023/06/16 02:29:17;;;;;;;0.68;0.68;;;;;;;;;;5034698;28;20030;-89
2023/06/16 02:31:50;;;;;;;0.75;0.52;;;;;;;;;;5036710;28;20029;-89
2023/06/16 02:34:16;;;;;;;1.25;0.80;;;;;;;;;;5015472;28;20029;-91
2023/06/16 02:36:43;;;;;;;0.90;0.65;;;;;;;;;;5017951;28;20381;-87
2023/06/16 02:39:09;;;;;;;1.13;0.93;;;;;;;;;;5033319;28;20592;-89
2023/06/16 02:41:35;;;;;;;1.13;0.68;;;;;;;;;;5020083;28;20033;-87
2023/06/16 02:44:01;;;;;;;1.35;1.20;;;;;;;;;;5036261;28;20035;-92
2023/06/16 02:46:26;;;;;;;1.15;0.80;;;;;;;;;;5039186;28;20034;-87
2023/06/16 02:48:52;;;;;;;1.05;0.90;;;;;;;;;;5017110;28;20033;-89
2023/06/16 02:51:17;;;;;;;1.88;1.67;;;;;;;;;;5017620;28;20047;-89
2023/06/16 02:53:45;;;;;;;1.60;1.27;;;;;;;;;;5019732;28;20043;-91
2023/06/16 02:56:11;;;;;;;1.48;0.85;;;;;;;;;;5035608;28;20025;-87
2023/06/16 02:58:38;;;;;;;2.80;0.90;;;;;;;;;;5036171;28;20401;-88
2023/06/16 03:01:04;;;;;;;0.88;0.73;;;;;;;;;;5015008;28;20117;-87
2023/06/16 03:03:31;;;;;;;1.33;0.95;;;;;;;;;;5034991;28;20055;-88
2023/06/16 03:06:00;;;;;;;0.85;0.65;;;;;;;;;;5034544;28;20021;-89
2023/06/16 03:08:26;;;;;;;2.13;1.40;;;;;;;;;;5016127;28;20068;-87
2023/06/16 03:10:52;;;;;;;1.85;1.30;;;;;;;;;;5015067;28;20171;-86
2023/06/16 03:13:18;;;;;;;1.05;0.95;;;;;;;;;;5034081;28;20092;-87
2023/06/16 03:15:44;;;;;;;0.60;0.60;;;;;;;;;;5034134;28;20111;-87
2023/06/16 03:18:10;;;;;;;1.48;0.85;;;;;;;;;;5032551;28;20435;-87
2023/06/16 03:20:36;;;;;;;0.98;0.65;;;;;;;;;;5033446;28;20029;-88
2023/06/16 03:23:02;;;;;;;1.60;1.17;;;;;;;;;;5019779;28;20425;-88
2023/06/16 03:25:30;;;;;;;2.42;1.20;;;;;;;;;;5032258;28;20044;-86
2023/06/16 03:27:56;;;;;;;0.93;0.77;;;;;;;;;;5014306;28;20030;-86
2023/06/16 03:30:21;;;;;;;0.98;0.70;;;;;;;;;;5015392;28;20388;-88
2023/06/16 03:32:47;;;;;;;0.93;0.80;;;;;;;;;;5017858;28;20557;-86
2023/06/16 03:35:12;;;;;;;0.90;0.68;;;;;;;;;;5015242;28;20044;-88
2023/06/16 03:37:38;;;;;;;1.80;0.82;;;;;;;;;;5017706;28;20370;-86
2023/06/16 03:40:07;;;;;;;0.95;0.88;;;;;;;;;;5018247;28;20025;-87
2023/06/16 03:42:33;;;;;;;1.58;1.25;;;;;;;;;;5018238;28;20489;-86
2023/06/16 03:44:59;;;;;;;0.98;0.80;;;;;;;;;;5017486;28;20037;-86
2023/06/16 03:47:27;;;;;;;1.13;0.73;;;;;;;;;;5034541;28;20038;-88
2023/06/16 03:49:54;;;;;;;3.20;1.35;;;;;;;;;;5015575;28;20029;-86
2023/06/16 03:52:20;;;;;;;0.90;0.77;;;;;;;;;;5014094;28;20033;-87
2023/06/16 03:54:46;;;;;;;1.55;1.00;;;;;;;;;;5033379;28;20461;-84
2023/06/16 03:57:12;;;;;;;4.60;1.38;;;;;;;;;;5030341;28;20354;-86
2023/06/16 03:59:38;;;;;;;1.73;1.23;;;;;;;;;;5011812;28;20060;-89
2023/06/16 04:02:07;;;;;;;1.27;1.17;;;;;;;;;;5030788;28;20029;-88
2023/06/16 04:04:33;;;;;;;0.85;0.65;;;;;;;;;;5029308;28;20060;-86
2023/06/16 04:07:00;;;;;;;1.45;1.08;;;;;;;;;;5012191;28;20366;-85
2023/06/16 04:09:26;;;;;;;1.00;0.75;;;;;;;;;;5029731;28;20026;-85
2023/06/16 04:11:52;;;;;;;2.45;1.38;;;;;;;;;;5030640;28;20056;-87
2023/06/16 04:14:17;;;;;;;1.52;1.15;;;;;;;;;;5006145;28;20052;-88
2023/06/16 04:16:43;;;;;;;6.70;1.73;;;;;;;;;;5013007;28;20033;-86
2023/06/16 04:19:11;;;;;;;2.28;1.40;;;;;;;;;;5013551;28;20485;-88
2023/06/16 04:21:37;;;;;;;1.38;0.88;;;;;;;;;;5030646;28;20033;-84
2023/06/16 04:24:04;;;;;;;1.77;1.55;;;;;;;;;;5011421;28;20112;-87
2023/06/16 04:26:30;;;;;;;2.63;1.63;;;;;;;;;;5012755;28;20030;-84
2023/06/16 04:28:55;;;;;;;2.03;1.33;;;;;;;;;;5028673;28;20052;-86
2023/06/16 04:31:22;;;;;;;1.75;1.17;;;;;;;;;;5009388;28;20425;-85
2023/06/16 04:33:48;;;;;;;2.08;1.60;;;;;;;;;;5008747;28;20124;-85
2023/06/16 04:36:16;;;;;;;1.92;1.73;;;;;;;;;;5014215;28;20148;-87
2023/06/16 04:38:43;;;;;;;2.72;1.75;;;;;;;;;;5034127;28;20069;-85
2023/06/16 04:41:08;;;;;;;2.47;1.92;;;;;;;;;;5032558;28;20029;-83
2023/06/16 04:43:34;;;;;;;4.80;2.67;;;;;;;;;;5033143;28;20025;-84
2023/06/16 04:45:59;;;;;;;2.88;1.95;;;;;;;;;;5028430;28;20535;-84
2023/06/16 04:48:25;;;;;;;2.55;1.67;;;;;;;;;;5025889;28;20085;-86
2023/06/16 04:50:53;;;;;;;2.33;1.85;;;;;;;;;;5029960;28;20461;-83
2023/06/16 04:53:18;;;;;;;2.28;1.60;;;;;;;;;;5030595;28;20018;-85
2023/06/16 04:55:44;;;;;;;2.03;1.80;;;;;;;;;;5012425;28;20029;-86
2023/06/16 04:58:10;;;;;;;11.85;2.03;;;;;;;;;;5025202;28;20052;-87
2023/06/16 05:00:35;;;;;;;4.07;2.05;;;;;;;;;;5027971;28;20505;-85
2023/06/16 05:03:01;;;;;;;2.28;1.50;;;;;;;;;;5012144;28;20116;-83
2023/06/16 05:05:26;;;;;;;3.88;2.58;;;;;;;;;;5012225;28;20026;-87
2023/06/16 05:07:52;;;;;;;3.20;2.22;;;;;;;;;;5012089;28;20029;-83
2023/06/16 05:10:17;;;;;;;2.20;2.00;;;;;;;;;;5011806;28;20421;-83
2023/06/16 05:12:43;;;;;;;4.47;3.03;;;;;;;;;;5031797;28;20037;-88
2023/06/16 05:15:09;;;;;;;4.35;2.45;;;;;;;;;;5033362;28;20033;-82
2023/06/16 05:17:36;;;;;;;3.25;2.33;;;;;;;;;;5016036;28;20025;-87
2023/06/16 05:20:02;;;;;;;2.40;1.50;;;;;;;;;;5033377;28;20025;-89
2023/06/16 05:22:27;;;;;;;2.65;2.20;;;;;;;;;;5032279;28;20036;-84
2023/06/16 05:24:54;;;;;;;3.67;2.83;;;;;;;;;;5015205;28;20113;-87
2023/06/16 05:27:22;;;;;;;2.47;2.17;;;;;;;;;;5033123;28;20112;-83
2023/06/16 05:29:50;;;;;;;2.55;1.88;;;;;;;;;;5034383;28;20029;-84
2023/06/16 05:32:15;;;;;;;5.00;3.33;;;;;;;;;;5013037;28;20057;-88
2023/06/16 05:34:41;;;;;;;5.38;3.33;;;;;;;;;;5028500;28;20510;-83
2023/06/16 05:37:06;;;;;;;4.90;2.75;;;;;;;;;;5031796;28;20025;-84
2023/06/16 05:39:31;;;;;;;5.80;3.42;;;;;;;;;;5016485;28;20477;-84
2023/06/16 05:41:57;;;;;;;3.67;2.60;;;;;;;;;;5032916;28;20029;-83
2023/06/16 05:44:22;;;;;;;4.25;2.83;;;;;;;;;;5013462;28;20466;-83
2023/06/16 05:46:48;;;;;;;5.35;3.25;;;;;;;;;;5012534;28;20049;-83
2023/06/16 05:49:13;;;;;;;3.38;2.70;;;;;;;;;;5013914;28;20044;-83
2023/06/16 05:51:38;;;;;;;5.47;3.90;;;;;;;;;;5015373;28;20052;-83
2023/06/16 05:54:04;;;;;;;3.63;2.50;;;;;;;;;;5013435;28;20033;-85
2023/06/16 05:56:29;;;;;;;5.10;2.97;;;;;;;;;;5030366;28;20045;-85
2023/06/16 05:58:55;;;;;;;5.35;2.65;;;;;;;;;;5015009;28;20029;-84
2023/06/16 06:01:20;;;;;;;3.65;2.75;;;;;;;;;;5032207;28;20033;-83
2023/06/16 06:03:46;;;;;;;4.35;3.58;;;;;;;;;;5032756;28;20370;-84
2023/06/16 06:06:12;;;;;;;5.03;3.17;;;;;;;;;;5014618;28;20025;-84
2023/06/16 06:08:38;;;;;;;3.67;3.05;;;;;;;;;;5032446;28;20078;-84
2023/06/16 06:11:06;;;;;;;3.85;2.85;;;;;;;;;;5014552;28;20483;-83
2023/06/16 06:13:32;;;;;;;5.82;3.42;;;;;;;;;;5029633;28;20068;-85
2023/06/16 06:15:58;;;;;;;3.80;3.40;;;;;;;;;;5032377;28;20065;-84
2023/06/16 06:18:23;;;;;;;4.03;3.22;;;;;;;;;;5014047;28;20057;-84
2023/06/16 06:20:49;;;;;;;4.55;2.60;;;;;;;;;;5031506;28;20056;-87
2023/06/16 06:23:15;;;;;;;3.95;3.00;;;;;;;;;;5013399;28;20029;-86
2023/06/16 06:25:42;;;;;;;4.90;3.05;;;;;;;;;;5032061;28;20051;-85
2023/06/16 06:28:08;;;;;;;4.13;3.00;;;;;;;;;;5031232;28;20113;-84
2023/06/16 06:30:33;;;;;;;3.10;2.30;;;;;;;;;;5012984;28;20033;-86
2023/06/16 06:33:00;;;;;;;3.15;2.30;;;;;;;;;;5014832;28;20530;-85
2023/06/16 06:35:25;;;;;;;2.63;2.22;;;;;;;;;;5033248;28;20029;-85
2023/06/16 06:37:51;;;;;;;4.78;2.55;;;;;;;;;;5032054;28;20017;-86
2023/06/16 06:40:16;;;;;;;3.95;3.13;;;;;;;;;;5014581;28;20037;-86
2023/06/16 06:42:42;;;;;;;3.13;2.35;;;;;;;;;;5031616;28;20030;-87
2023/06/16 06:45:10;;;;;;;3.10;2.13;;;;;;;;;;5031120;28;20025;-85
2023/06/16 06:47:36;;;;;;;3.08;1.83;;;;;;;;;;5031413;28;20048;-83
2023/06/16 06:50:03;;;;;;;2.33;1.92;;;;;;;;;;5027910;28;20540;-84
2023/06/16 06:52:28;;;;;;;2.88;2.15;;;;;;;;;;5013454;28;20028;-82
2023/06/16 06:54:56;;;;;;;3.40;1.95;;;;;;;;;;5013383;28;20021;-83
2023/06/16 06:57:22;;;;;;;3.95;2.70;;;;;;;;;;5030806;28;20049;-88
2023/06/16 06:59:47;;;;;;;1.95;1.73;;;;;;;;;;5028431;28;20060;-86
2023/06/16 07:02:14;;;;;;;2.95;2.03;;;;;;;;;;5029117;28;20025;-90
2023/06/16 07:04:39;;;;;;;1.50;1.40;;;;;;;;;;5029843;28;20557;-86
2023/06/16 07:07:05;;;;;;;1.40;1.17;;;;;;;;;;5013489;28;20104;-85
2023/06/16 07:09:31;;;;;;;1.73;1.45;;;;;;;;;;5011991;28;20037;-85
2023/06/16 07:11:57;;;;;;;1.70;1.20;;;;;;;;;;5013126;28;21277;-82
2023/06/16 07:14:22;;;;;;;1.65;1.10;;;;;;;;;;5012786;28;20037;-85
2023/06/16 07:16:48;;;;;;;2.00;1.77;;;;;;;;;;5029367;28;20444;-88
2023/06/16 07:19:13;;;;;;;2.15;1.55;;;;;;;;;;5030065;28;20104;-87
2023/06/16 07:21:39;;;;;;;2.05;1.55;;;;;;;;;;5012878;28;20067;-87
2023/06/16 07:24:07;;;;;;;1.33;1.23;;;;;;;;;;5013419;28;20029;-87
2023/06/16 07:26:33;;;;;;;1.27;1.17;;;;;;;;;;5012043;28;20028;-86
2023/06/16 07:28:59;;;;;;;2.22;1.55;;;;;;;;;;5012925;28;20033;-89
2023/06/16 07:31:25;;;;;;;1.52;1.15;;;;;;;;;;5012775;28;20060;-87
2023/06/16 07:33:50;;;;;;;1.10;1.00;;;;;;;;;;5013158;28;20060;-87
2023/06/16 07:36:16;;;;;;;1.55;1.30;;;;;;;;;;5012579;28;20446;-90
2023/06/16 07:38:41;;;;;;;1.60;1.48;;;;;;;;;;5014493;28;20114;-89
2023/06/16 07:41:12;;;;;;;1.13;0.80;;;;;;;;;;5015167;28;20051;-92
2023/06/16 07:43:41;;;;;;;1.48;1.20;;;;;;;;;;5031946;28;20071;-87
2023/06/16 07:46:07;;;;;;;1.05;0.82;;;;;;;;;;5014321;28;20028;-88
2023/06/16 07:48:32;;;;;;;1.05;0.95;;;;;;;;;;5014001;28;20049;-87
2023/06/16 07:50:58;;;;;;;1.60;0.93;;;;;;;;;;5030732;28;20378;-86
2023/06/16 07:53:23;;;;;;;3.20;1.10;;;;;;;;;;5031542;28;20022;-89
2023/06/16 07:55:49;;;;;;;1.13;0.90;;;;;;;;;;5023566;28;20026;-87
2023/06/16 07:58:14;;;;;;;1.05;0.90;;;;;;;;;;5011777;28;20428;-89
2023/06/16 08:00:40;;;;;;;1.95;1.45;;;;;;;;;;5011992;28;20033;-85
2023/06/16 08:03:06;;;;;;;1.80;1.20;;;;;;;;;;5012335;28;20137;-85
2023/06/16 08:05:31;;;;;;;2.45;1.77;;;;;;;;;;5009484;28;20026;-88
2023/06/16 08:07:57;;;;;;;2.22;1.23;;;;;;;;;;5012907;28;20030;-87
2023/06/16 08:10:28;;;;;;;2.92;2.10;;;;;;;;;;5012823;28;20105;-88
2023/06/16 08:12:53;;;;;;;2.95;1.70;;;;;;;;;;5013250;28;20049;-91
2023/06/16 08:15:20;;;;;;;2.70;1.90;;;;;;;;;;5012597;28;20099;-89
2023/06/16 08:17:45;;;;;;;3.58;2.47;;;;;;;;;;5013676;28;20450;-86
2023/06/16 08:20:11;;;;;;;2.90;2.00;;;;;;;;;;5014729;28;20061;-87
2023/06/16 08:22:37;;;;;;;2.50;1.88;;;;;;;;;;5012453;28;20453;-86
2023/06/16 08:25:04;;;;;;;2.35;1.70;;;;;;;;;;5030194;28;20037;-89
2023/06/16 08:27:30;;;;;;;1.83;1.50;;;;;;;;;;5013434;28;20033;-89
2023/06/16 08:29:55;;;;;;;2.75;2.10;;;;;;;;;;5030750;28;20087;-85
2023/06/16 08:32:21;;;;;;;2.95;2.05;;;;;;;;;;5013764;28;20080;-89
2023/06/16 08:34:46;;;;;;;3.38;2.22;;;;;;;;;;5012875;28;20029;-88
2023/06/16 08:37:12;;;;;;;2.88;2.10;;;;;;;;;;5031236;28;20048;-89
2023/06/16 08:39:37;;;;;;;2.67;1.80;;;;;;;;;;5029396;28;20064;-90
2023/06/16 08:42:03;;;;;;;2.15;1.40;;;;;;;;;;5012749;28;20021;-88
2023/06/16 08:44:32;;;;;;;2.53;2.00;;;;;;;;;;5012870;28;20025;-88
2023/06/16 08:46:58;;;;;;;1.80;1.48;;;;;;;;;;5029480;28;20107;-85
2023/06/16 08:49:24;;;;;;;2.42;1.48;;;;;;;;;;5032923;28;20532;-88
2023/06/16 08:51:51;;;;;;;4.65;2.80;;;;;;;;;;5035275;28;20401;-89
2023/06/16 08:54:19;;;;;;;1.92;1.65;;;;;;;;;;5016981;28;20029;-87
2023/06/16 08:56:47;;;;;;;3.92;2.42;;;;;;;;;;5032989;28;20037;-89
2023/06/16 08:59:15;;;;;;;2.33;1.58;;;;;;;;;;5016860;28;20040;-88
2023/06/16 09:01:42;;;;;;;3.88;2.70;;;;;;;;;;5017205;28;20449;-89
2023/06/16 09:04:13;;;;;;;2.97;2.13;;;;;;;;;;5015582;28;20029;-90
2023/06/16 09:06:56;;;;;;;2.28;1.63;;;;;;;;;;5033483;28;20026;-86
2023/06/16 09:09:24;;;;;;;3.55;2.40;;;;;;;;;;5016006;28;20033;-86
2023/06/16 09:12:07;;;;;;;5.63;2.13;;;;;;;;;;5032868;28;20065;-87
2023/06/16 09:14:33;;;;;;;3.00;1.88;;;;;;;;;;5031593;28;20108;-88
2023/06/16 09:17:03;;;;;;;3.25;2.13;;;;;;;;;;5032905;28;20029;-88
2023/06/16 09:19:30;;;;;;;;;;;;;;;;;;5033207;28;20584;-87
2023/06/16 09:21:56;;;;;;;3.08;2.67;;;;;;;;;;5016113;28;20384;-85
2023/06/16 09:24:26;;;;;;;5.00;2.15;;;;;;;;;;5031342;28;20392;-84
2023/06/16 09:26:55;;;;;;;2.60;2.15;;;;;;;;;;5015005;28;20440;-85
2023/06/16 09:29:24;;;;;;;3.33;2.00;;;;;;;;;;5032643;28;20036;-85
2023/06/16 09:31:49;;;;;;;3.22;2.47;;;;;;;;;;5035473;28;20036;-88
2023/06/16 09:34:15;;;;;;;2.38;2.08;;;;;;;;;;5034574;28;20025;-86
2023/06/16 09:36:41;;;;;;;2.38;2.08;;;;;;;;;;5032223;28;20064;-88
2023/06/16 09:39:29;;;;;;;3.72;2.70;;;;;;;;;;5017380;28;21191;-89
2023/06/16 09:42:32;;;;;;;2.30;1.80;;;;;;;;;;5005774;28;20041;-85
2023/06/16 09:49:08;;;;;;;3.78;2.33;;;;;;;;;;4976492;28;20051;-87
2023/06/16 09:55:36;;;;;;;;;;;;;;;;;;;;;
2023/06/16 09:59:15;;;;;;;;;;;;;;;;;;;;;
2023/06/16 10:02:34;;;;;;;2.55;2.03;;;;;;;;;;4921188;28;20386;-86
2023/06/16 10:11:52;;;;;;;3.95;2.58;;;;;;;;;;4992908;28;20070;-83
2023/06/16 10:14:34;;;;;;;;;;;;;;;;;;;;;
2023/06/16 10:18:29;;;;;;;;;;;;;;;;;;;;;
2023/06/16 10:20:40;;;;;;;3.75;2.78;;;;;;;;;;4893641;29;20473;-86
2023/06/16 10:23:26;;;;;;;3.35;2.60;;;;;;;;;;4944548;28;20040;-86
2023/06/16 10:26:16;;;;;;;4.22;2.50;;;;;;;;;;5016916;28;20572;-86
2023/06/16 10:28:45;;;;;;;2.80;1.92;;;;;;;;;;5029124;28;20128;-87
2023/06/16 10:31:15;;;;;;;4.45;2.92;;;;;;;;;;5029327;28;20033;-85
2023/06/16 10:33:53;;;;;;;3.70;2.60;;;;;;;;;;5014109;28;20444;-85
2023/06/16 10:37:05;;;;;;;4.28;2.50;;;;;;;;;;5011894;28;21327;-87
2023/06/16 10:39:48;;;;;;;1.88;1.52;;;;;;;;;;5019341;28;20040;-84
2023/06/16 10:42:52;;;;;;;3.15;2.38;;;;;;;;;;5029809;28;20075;-87
2023/06/16 10:45:44;;;;;;;4.10;2.72;;;;;;;;;;4965104;28;20544;-89
2023/06/16 10:48:18;;;;;;;2.67;2.13;;;;;;;;;;5007453;28;20049;-89
2023/06/16 10:50:55;;;;;;;3.00;2.15;;;;;;;;;;5026895;28;20150;-85
2023/06/16 10:53:47;;;;;;;3.72;2.75;;;;;;;;;;5018336;28;20049;-86
2023/06/16 10:56:16;;;;;;;3.50;2.50;;;;;;;;;;4948724;29;20104;-87
2023/06/16 10:59:02;;;;;;;2.75;2.25;;;;;;;;;;5007264;28;20095;-86
2023/06/16 11:09:00;;;;;;;5.38;2.58;;;;;;;;;;4996606;28;20027;-85
2023/06/16 11:18:27;;;;;;;3.60;2.30;;;;;;;;;;4929492;29;20042;-84
2023/06/16 11:20:57;;;;;;;4.53;3.30;;;;;;;;;;5003241;28;20413;-87
2023/06/16 11:23:23;;;;;;;3.15;2.35;;;;;;;;;;5026557;28;20381;-86
2023/06/16 11:25:50;;;;;;;2.90;2.20;;;;;;;;;;5012242;28;20060;-91
2023/06/16 11:28:20;;;;;;;3.05;1.95;;;;;;;;;;5014380;28;20481;-84
2023/06/16 11:30:46;;;;;;;3.90;2.67;;;;;;;;;;5014503;28;20090;-86
2023/06/16 11:33:16;;;;;;;2.28;1.92;;;;;;;;;;5031906;28;20037;-88
2023/06/16 11:35:41;;;;;;;;;;;;;;;;;;5031243;28;20017;-85
2023/06/16 11:38:07;;;;;;;2.53;2.15;;;;;;;;;;5031262;28;19917;-86
2023/06/16 11:40:33;;;;;;;3.97;2.90;;;;;;;;;;5028816;28;20406;-89
2023/06/16 11:43:00;;;;;;;4.40;2.92;;;;;;;;;;5033092;28;20040;-85
2023/06/16 11:45:27;;;;;;;3.13;2.13;;;;;;;;;;5031260;28;20054;-86
2023/06/16 11:47:57;;;;;;;2.50;2.15;;;;;;;;;;5030029;28;20088;-88
2023/06/16 11:50:24;;;;;;;3.25;2.40;;;;;;;;;;5030524;28;20053;-90
2023/06/16 11:52:51;;;;;;;3.40;2.30;;;;;;;;;;5011116;28;20044;-90
2023/06/16 11:55:17;;;;;;;3.85;2.67;;;;;;;;;;5013500;28;20057;-88
2023/06/16 11:57:43;;;;;;;4.53;2.45;;;;;;;;;;5013606;28;20453;-87
2023/06/16 12:00:10;;;;;;;2.28;2.05;;;;;;;;;;5014725;28;20035;-85
2023/06/16 12:02:37;;;;;;;2.17;1.55;;;;;;;;;;5030668;28;20033;-87
2023/06/16 12:05:05;;;;;;;1.77;1.52;;;;;;;;;;5028018;28;20053;-87
2023/06/16 12:07:32;;;;;;;3.05;2.03;;;;;;;;;;5030710;28;20044;-88
2023/06/16 12:10:01;;;;;;;2.03;1.63;;;;;;;;;;5030547;28;20025;-88
2023/06/16 12:12:26;;;;;;;1.58;1.35;;;;;;;;;;5027397;28;20033;-88
2023/06/16 12:14:53;;;;;;;1.48;1.30;;;;;;;;;;5029062;28;20119;-87
2023/06/16 12:17:23;;;;;;;1.85;1.35;;;;;;;;;;5010603;28;20026;-86
2023/06/16 12:19:48;;;;;;;2.00;1.63;;;;;;;;;;5010467;28;20041;-90
2023/06/16 12:22:13;;;;;;;1.80;1.58;;;;;;;;;;5014887;28;20086;-88
2023/06/16 12:24:40;;;;;;;1.75;1.63;;;;;;;;;;5025781;28;20101;-89
2023/06/16 12:27:06;;;;;;;2.70;1.83;;;;;;;;;;5029892;28;20029;-87
2023/06/16 12:29:31;;;;;;;1.63;1.52;;;;;;;;;;5024528;28;20021;-87
2023/06/16 12:32:00;;;;;;;2.33;1.63;;;;;;;;;;5032045;28;20029;-86
2023/06/16 12:34:33;;;;;;;1.25;1.15;;;;;;;;;;5031698;28;20108;-88
2023/06/16 12:37:01;;;;;;;1.50;1.23;;;;;;;;;;5017155;28;20025;-89
2023/06/16 12:39:27;;;;;;;2.72;1.70;;;;;;;;;;5032612;28;20034;-87
2023/06/16 12:41:57;;;;;;;1.50;1.30;;;;;;;;;;5033905;28;20033;-88
2023/06/16 12:44:23;;;;;;;0.93;0.93;;;;;;;;;;5015748;28;20477;-86
2023/06/16 12:46:49;;;;;;;1.90;1.48;;;;;;;;;;5016295;28;20032;-87
2023/06/16 12:49:14;;;;;;;1.85;1.35;;;;;;;;;;5033872;28;20058;-87
2023/06/16 12:51:40;;;;;;;1.58;1.35;;;;;;;;;;5016393;28;20037;-85
2023/06/16 12:54:11;;;;;;;1.35;1.08;;;;;;;;;;5014987;28;20097;-87
2023/06/16 12:56:37;;;;;;;1.85;1.33;;;;;;;;;;5033930;28;20029;-87
2023/06/16 12:59:03;;;;;;;1.73;1.23;;;;;;;;;;5033761;28;20033;-88
2023/06/16 13:01:28;;;;;;;1.42;1.33;;;;;;;;;;5033102;28;20523;-88
2023/06/16 13:03:54;;;;;;;1.75;1.48;;;;;;;;;;5033141;28;20025;-88
2023/06/16 13:06:19;;;;;;;1.30;1.10;;;;;;;;;;5014503;28;20033;-85
2023/06/16 13:08:46;;;;;;;1.88;1.40;;;;;;;;;;5033725;28;20108;-86
2023/06/16 13:11:12;;;;;;;2.20;1.80;;;;;;;;;;5030934;28;20425;-86
2023/06/16 13:13:37;;;;;;;1.48;1.38;;;;;;;;;;5033759;28;20025;-86
2023/06/16 13:16:03;;;;;;;3.20;2.13;;;;;;;;;;5033915;28;20473;-87
2023/06/16 13:18:29;;;;;;;1.77;1.30;;;;;;;;;;5014142;28;20033;-89
2023/06/16 13:20:54;;;;;;;2.22;1.50;;;;;;;;;;5033205;28;20017;-85
2023/06/16 13:23:21;;;;;;;2.53;1.90;;;;;;;;;;5015301;28;20029;-89
2023/06/16 13:25:47;;;;;;;2.30;1.88;;;;;;;;;;5033681;28;20483;-91
2023/06/16 13:28:13;;;;;;;6.97;2.47;;;;;;;;;;5015991;28;20112;-89
2023/06/16 13:30:38;;;;;;;2.70;1.45;;;;;;;;;;5029563;28;20478;-87
2023/06/16 13:33:04;;;;;;;2.00;1.50;;;;;;;;;;5019203;28;20354;-87
2023/06/16 13:35:29;;;;;;;2.10;1.58;;;;;;;;;;5015501;28;20025;-87
2023/06/16 13:37:55;;;;;;;3.85;1.40;;;;;;;;;;5032953;28;20014;-86
2023/06/16 13:40:20;;;;;;;1.55;1.35;;;;;;;;;;5015761;28;20120;-89
2023/06/16 13:42:47;;;;;;;3.30;2.13;;;;;;;;;;5030220;28;20171;-87
2023/06/16 13:45:12;;;;;;;1.73;1.45;;;;;;;;;;5014066;28;20033;-85
2023/06/16 13:47:38;;;;;;;2.63;1.83;;;;;;;;;;5032394;28;20511;-86
2023/06/16 13:50:03;;;;;;;2.53;1.92;;;;;;;;;;5032647;28;20543;-84
2023/06/16 13:52:29;;;;;;;2.30;1.75;;;;;;;;;;5028987;28;20033;-85
2023/06/16 13:54:55;;;;;;;2.03;1.60;;;;;;;;;;5012601;28;20038;-89
2023/06/16 13:57:20;;;;;;;1.40;1.23;;;;;;;;;;5029579;28;20021;-86
2023/06/16 13:59:46;;;;;;;2.05;1.77;;;;;;;;;;5014593;28;20083;-89
2023/06/16 14:02:11;;;;;;;1.38;1.27;;;;;;;;;;5031531;28;20076;-86
2023/06/16 14:04:37;;;;;;;3.00;1.45;;;;;;;;;;5032495;28;20429;-89
2023/06/16 14:07:02;;;;;;;1.65;1.27;;;;;;;;;;5014044;28;20443;-87
2023/06/16 14:09:28;;;;;;;1.85;1.20;;;;;;;;;;5010219;28;20041;-90
2023/06/16 14:11:53;;;;;;;2.58;1.80;;;;;;;;;;5030568;28;20033;-88
2023/06/16 14:14:20;;;;;;;3.58;1.67;;;;;;;;;;5014971;28;20036;-89
2023/06/16 14:16:45;;;;;;;2.60;1.77;;;;;;;;;;5029827;28;20018;-88
2023/06/16 14:19:10;;;;;;;1.73;1.30;;;;;;;;;;5029943;28;20484;-86
2023/06/16 14:21:36;;;;;;;2.03;1.45;;;;;;;;;;5031948;28;20033;-89
2023/06/16 14:24:01;;;;;;;1.42;1.23;;;;;;;;;;5032440;28;20025;-86
2023/06/16 14:26:27;;;;;;;1.42;1.15;;;;;;;;;;5028305;28;20026;-87
2023/06/16 14:28:52;;;;;;;1.67;1.52;;;;;;;;;;5032295;28;20017;-85
2023/06/16 14:31:19;;;;;;;1.90;1.42;;;;;;;;;;5032452;28;20041;-85
2023/06/16 14:33:46;;;;;;;1.75;1.25;;;;;;;;;;5031298;28;20104;-87
2023/06/16 14:36:11;;;;;;;2.10;1.25;;;;;;;;;;5014074;28;20358;-86
2023/06/16 14:38:37;;;;;;;1.38;1.15;;;;;;;;;;5031553;28;20028;-87
2023/06/16 14:41:02;;;;;;;0.75;0.73;;;;;;;;;;5031861;28;20036;-87
2023/06/16 14:43:28;;;;;;;1.38;1.10;;;;;;;;;;5013078;28;20386;-86
2023/06/16 14:45:53;;;;;;;1.55;1.33;;;;;;;;;;5032437;28;20040;-86
2023/06/16 14:48:19;;;;;;;1.48;1.10;;;;;;;;;;5011315;28;20048;-89
2023/06/16 14:50:44;;;;;;;1.08;0.95;;;;;;;;;;5032592;28;20064;-92
2023/06/16 14:53:10;;;;;;;1.52;1.33;;;;;;;;;;5015315;28;20091;-87
2023/06/16 14:55:35;;;;;;;1.85;1.35;;;;;;;;;;5032610;28;20469;-85
2023/06/16 14:58:00;;;;;;;2.28;1.38;;;;;;;;;;5032172;28;20033;-88
2023/06/16 15:00:26;;;;;;;2.10;1.55;;;;;;;;;;5014163;28;20029;-88
2023/06/16 15:02:51;;;;;;;1.20;1.08;;;;;;;;;;5032182;28;20469;-87
2023/06/16 15:05:17;;;;;;;3.00;1.80;;;;;;;;;;5032035;28;20153;-88
2023/06/16 15:07:43;;;;;;;1.73;1.15;;;;;;;;;;5012716;28;20065;-84
2023/06/16 15:10:09;;;;;;;2.13;1.60;;;;;;;;;;5027700;28;20103;-88
2023/06/16 15:12:34;;;;;;;1.23;1.08;;;;;;;;;;5029765;28;20029;-86
2023/06/16 15:15:00;;;;;;;1.98;1.30;;;;;;;;;;5013799;28;20196;-86
2023/06/16 15:17:27;;;;;;;1.08;0.80;;;;;;;;;;5030673;28;20108;-89
2023/06/16 15:19:52;;;;;;;1.52;1.23;;;;;;;;;;5011519;28;20037;-85
2023/06/16 15:22:18;;;;;;;0.85;0.75;;;;;;;;;;5013797;28;20029;-89